Terminal Aerodrome Forecast
Issued by NWS

Home | Current Version | Previous Version | Text Only | Print | Product List | Glossary On
Versions: 1 2 3 4 5 6 7 8 9 10 11 12 13 14 15 16 17
787
FTUS43 KDVN 091720
TAFBRL
TAF
KBRL 091720Z 0918/1018 30007KT P6SM BKN020
      TEMPO 0918/0921 SCT020
     FM092100 31006KT P6SM SCT020 BKN150
     FM100100 VRB03KT P6SM OVC100
     FM101200 17004KT P6SM OVC070
     FM101700 15006KT P6SM OVC035=

USA.gov is the U.S. government's official web portal to all federal, state and local government web resources and services.